LSZRLSZS

Guest
Details From LSZR - St.gallen-altenrhein
To LSZS - Samedan
Flight Number -
Tags Generated
Created
Modified
Stats Distance 59 nm / 110 km
Max Altitude 0 ft / 0 m
Waypoints 2
Social Downloads 3
Likes 0
Share VATSIM

Download

Looking for another format? Having issues loading an existing format? Contact us
Advertisement - Login to hide

Notes

Generated

Route

LSZR LSZS

ID Type Via Altitude Latitude Longitude Leg Dist Tot Dist Heading (true) Name
O LSZR APT - 0 ft / 0 m 47.48658˚ 9.55628˚ - 0 nm - St.Gallen-Altenrhein
O LSZS APT - 0 ft / 0 m 46.52683˚ 9.87829˚ 59 nm 59 nm 167° / 167° Samedan

Altitude Profile

Advertisement - Login to hide

LSZR

Details ICAO LSZR (ACH)
Name St.Gallen-Altenrhein
Region Switzerland
Timezone Europe/Zurich (UTC+1.0)
Stats Elevation 1,306 ft / 398 m (AMSL)
Location 47.485559° 9.560741°
Runways 2
Magnetic Variation 2.597° E

METAR

LSZR 140620Z 25010G23KT 200V290 9999 FEW050 09/01 Q1002 NOSIG RMK B

Decode

TAF

Not found

Departure Runways

ID Width Length Bearing (true) Bearing (mag) Surface Threshold Offset Overrun Length
10 98 ft / 30 m 4,909 ft / 1,496 m 98.79° 96.19° Asphalt 328 ft / 100 m 0 ft / 0 m
10L 75 ft / 23 m 1,970 ft / 601 m 98.80° 96.20° Grass 0 ft / 0 m 0 ft / 0 m
28 98 ft / 30 m 4,909 ft / 1,496 m 278.81° 276.21° Asphalt 246 ft / 75 m 0 ft / 0 m
28R 75 ft / 23 m 1,970 ft / 601 m 278.80° 276.20° Grass 0 ft / 0 m 0 ft / 0 m

LSZS

Details ICAO LSZS (SMV)
Name Samedan
Region Switzerland
Timezone Europe/Zurich (UTC+1.0)
Stats Elevation 5,600 ft / 1,707 m (AMSL)
Location 46.534207° 9.883938°
Runways 1
Magnetic Variation 2.657° E

METAR

LSZS 140620Z AUTO 20012KT 9999 NCD M05/M08 Q1003

Decode

TAF

Not found

Destination Runways

ID Width Length Bearing (true) Bearing (mag) Surface Threshold Offset Overrun Length
03 131 ft / 40 m 6,059 ft / 1,847 m 29.10° 26.44° Asphalt 0 ft / 0 m 0 ft / 0 m
21 131 ft / 40 m 6,059 ft / 1,847 m 209.10° 206.44° Asphalt 361 ft / 110 m 0 ft / 0 m

Popular Alternatives